createdAt,value
2023-10-27T00:01:13.028Z,15.86
2023-10-27T00:03:41.216Z,15.01
2023-10-27T00:06:09.214Z,15.46
2023-10-27T00:08:36.883Z,15.43
2023-10-27T00:11:05.639Z,15.82
2023-10-27T00:13:33.631Z,16.02
2023-10-27T00:16:07.907Z,16.04
2023-10-27T00:18:35.650Z,16.13
2023-10-27T00:21:03.752Z,15.80
2023-10-27T00:23:31.462Z,15.29
2023-10-27T00:25:59.122Z,15.60
2023-10-27T00:28:27.053Z,15.94
2023-10-27T00:30:54.800Z,15.78
2023-10-27T00:33:24.001Z,15.52
2023-10-27T00:35:52.957Z,15.17
2023-10-27T00:38:21.976Z,15.12
2023-10-27T00:40:50.061Z,15.32
2023-10-27T00:43:19.132Z,15.30
2023-10-27T00:45:50.057Z,14.82
2023-10-27T00:48:21.323Z,15.09
2023-10-27T00:50:50.780Z,15.22
2023-10-27T00:53:20.838Z,15.30
2023-10-27T00:55:50.903Z,14.89
2023-10-27T00:58:22.195Z,14.94
2023-10-27T01:00:51.477Z,14.64
2023-10-27T01:03:20.272Z,13.82
2023-10-27T01:05:47.963Z,13.99
2023-10-27T01:08:17.348Z,13.82
2023-10-27T01:10:46.739Z,13.81
2023-10-27T01:13:14.493Z,13.87
2023-10-27T01:15:42.209Z,14.01
2023-10-27T01:18:09.922Z,14.66
2023-10-27T01:20:37.889Z,14.31
2023-10-27T01:23:07.044Z,14.31
2023-10-27T01:25:34.942Z,14.35
2023-10-27T01:28:02.903Z,14.71
2023-10-27T01:30:30.821Z,14.36
2023-10-27T01:32:58.902Z,14.43
2023-10-27T01:35:28.981Z,14.34
2023-10-27T01:37:56.765Z,14.76
2023-10-27T01:40:25.826Z,14.77
2023-10-27T01:42:53.579Z,15.05
2023-10-27T01:45:21.278Z,15.44
2023-10-27T01:47:49.013Z,14.97
2023-10-27T01:50:16.983Z,15.39
2023-10-27T01:52:44.653Z,15.83
2023-10-27T01:55:12.358Z,15.76
2023-10-27T01:57:44.012Z,15.58
2023-10-27T02:00:14.049Z,15.09
2023-10-27T02:02:43.346Z,14.19
2023-10-27T02:05:11.124Z,13.45
2023-10-27T02:07:38.845Z,13.36
2023-10-27T02:10:07.642Z,12.94
2023-10-27T02:12:35.587Z,12.83
2023-10-27T02:15:05.659Z,12.67
2023-10-27T02:17:33.633Z,12.18
2023-10-27T02:20:01.428Z,12.50
2023-10-27T02:22:29.211Z,12.34
2023-10-27T02:24:56.938Z,12.47
2023-10-27T02:27:24.702Z,12.60
2023-10-27T02:29:52.368Z,12.86
2023-10-27T02:32:21.392Z,12.90
2023-10-27T02:34:49.086Z,13.07
2023-10-27T02:37:16.842Z,12.97
2023-10-27T02:39:44.817Z,13.15
2023-10-27T02:42:12.747Z,13.05
2023-10-27T02:44:42.843Z,13.24
2023-10-27T02:47:10.567Z,13.27
2023-10-27T02:49:39.658Z,13.34
2023-10-27T02:52:07.437Z,13.38
2023-10-27T02:54:36.194Z,13.32
2023-10-27T02:57:04.129Z,13.29
2023-10-27T02:59:31.997Z,13.18
2023-10-27T03:02:02.497Z,13.01
2023-10-27T03:04:30.276Z,13.11
2023-10-27T03:06:59.376Z,13.15
2023-10-27T03:09:27.185Z,13.10
2023-10-27T03:11:55.184Z,13.07
2023-10-27T03:14:22.874Z,13.22
2023-10-27T03:16:50.551Z,13.15
2023-10-27T03:19:18.408Z,13.04
2023-10-27T03:21:46.191Z,13.27
2023-10-27T03:24:15.267Z,13.20
2023-10-27T03:26:42.968Z,13.05
2023-10-27T03:29:10.759Z,13.03
2023-10-27T03:31:38.495Z,13.17
2023-10-27T03:34:07.384Z,13.37
2023-10-27T03:36:35.438Z,13.37
2023-10-27T03:39:03.417Z,13.45
2023-10-27T03:41:34.880Z,13.42
2023-10-27T03:44:06.954Z,13.54
2023-10-27T03:46:34.695Z,13.66
2023-10-27T03:49:02.756Z,13.69
2023-10-27T03:51:31.510Z,13.67
2023-10-27T03:53:59.275Z,13.67
2023-10-27T03:56:28.316Z,13.62
2023-10-27T03:58:57.388Z,13.73
2023-10-27T04:01:25.227Z,13.66
2023-10-27T04:03:53.017Z,13.54
2023-10-27T04:06:21.060Z,13.67
2023-10-27T04:08:49.083Z,13.68
2023-10-27T04:11:16.775Z,13.71
2023-10-27T04:13:44.489Z,13.77
2023-10-27T04:16:13.894Z,13.84
2023-10-27T04:18:41.613Z,13.82
2023-10-27T04:21:09.375Z,13.76
2023-10-27T04:23:37.132Z,13.70
2023-10-27T04:26:04.961Z,13.82
2023-10-27T04:28:32.686Z,13.79
2023-10-27T04:31:00.511Z,13.83
2023-10-27T04:33:29.708Z,13.75
2023-10-27T04:35:57.606Z,13.85
2023-10-27T04:38:25.472Z,13.78
2023-10-27T04:40:53.486Z,13.89
2023-10-27T04:43:21.205Z,13.93
2023-10-27T04:45:49.322Z,14.09
2023-10-27T04:48:17.206Z,14.00
2023-10-27T04:50:52.785Z,13.93
2023-10-27T04:53:20.510Z,13.86
2023-10-27T04:55:48.218Z,13.95
2023-10-27T04:58:15.911Z,13.97
2023-10-27T05:00:43.659Z,14.16
2023-10-27T05:03:11.347Z,14.13
2023-10-27T05:05:39.174Z,13.78
2023-10-27T05:08:08.293Z,13.76
2023-10-27T05:10:36.094Z,13.70
2023-10-27T05:13:04.094Z,13.97
2023-10-27T05:15:31.850Z,13.98
2023-10-27T05:17:59.674Z,14.02
2023-10-27T05:20:27.611Z,14.08
2023-10-27T05:22:55.335Z,14.05
2023-10-27T05:25:24.432Z,13.56
2023-10-27T05:27:52.150Z,13.52
2023-10-27T05:30:19.821Z,13.63
2023-10-27T05:32:47.594Z,13.56
2023-10-27T05:35:15.535Z,13.52
2023-10-27T05:37:43.552Z,13.38
2023-10-27T05:40:12.246Z,13.31
2023-10-27T05:42:41.351Z,13.30
2023-10-27T05:45:09.825Z,13.30
2023-10-27T05:47:37.508Z,13.37
2023-10-27T05:50:06.359Z,13.37
2023-10-27T05:52:34.201Z,13.55
2023-10-27T05:55:02.139Z,13.54
2023-10-27T05:57:29.888Z,13.44
2023-10-27T05:59:58.947Z,13.47
2023-10-27T06:02:26.693Z,13.46
2023-10-27T06:04:54.369Z,13.52
2023-10-27T06:07:22.072Z,13.39
2023-10-27T06:09:49.849Z,13.23
2023-10-27T06:12:17.545Z,13.37
2023-10-27T06:14:47.672Z,13.24
2023-10-27T06:17:16.755Z,13.23
2023-10-27T06:19:44.839Z,13.33
2023-10-27T06:22:12.787Z,13.25
2023-10-27T06:24:40.514Z,13.36
2023-10-27T06:27:08.350Z,13.32
2023-10-27T06:29:36.321Z,13.34
2023-10-27T06:32:04.440Z,13.37
2023-10-27T06:34:33.780Z,13.49
2023-10-27T06:37:01.842Z,13.57
2023-10-27T06:39:29.753Z,13.68
2023-10-27T06:41:57.590Z,13.67
2023-10-27T06:44:26.530Z,13.50
2023-10-27T06:46:54.234Z,13.59
2023-10-27T06:49:22.126Z,13.50
2023-10-27T06:51:51.215Z,13.67
2023-10-27T06:54:20.583Z,13.71
2023-10-27T06:56:48.567Z,13.73
2023-10-27T06:59:16.315Z,13.75
2023-10-27T07:01:44.587Z,13.68
2023-10-27T07:04:14.792Z,13.65
2023-10-27T07:06:42.719Z,13.78
2023-10-27T07:09:11.779Z,13.77
2023-10-27T07:11:39.542Z,13.63
2023-10-27T07:14:07.285Z,13.57
2023-10-27T07:16:35.018Z,13.57
2023-10-27T07:19:04.049Z,13.70
2023-10-27T07:21:31.766Z,13.87
2023-10-27T07:23:59.527Z,13.53
2023-10-27T07:26:30.874Z,13.55
2023-10-27T07:28:58.573Z,13.79
2023-10-27T07:31:26.435Z,13.83
2023-10-27T07:33:54.190Z,13.73
2023-10-27T07:36:22.940Z,13.60
2023-10-27T07:38:51.254Z,13.52
2023-10-27T07:41:18.987Z,13.55
2023-10-27T07:43:48.065Z,13.45
2023-10-27T07:46:15.878Z,13.65
2023-10-27T07:48:45.173Z,13.62
2023-10-27T07:51:12.929Z,13.47
2023-10-27T07:53:43.829Z,13.74
2023-10-27T07:56:12.276Z,13.74
2023-10-27T07:58:40.105Z,13.65
2023-10-27T08:01:09.229Z,13.58
2023-10-27T08:03:37.056Z,13.70
2023-10-27T08:06:08.222Z,13.76
2023-10-27T08:08:36.845Z,13.70
2023-10-27T08:11:05.062Z,13.66
2023-10-27T08:13:33.116Z,13.62
2023-10-27T08:16:01.246Z,13.74
2023-10-27T08:18:30.899Z,13.46
2023-10-27T08:20:59.050Z,13.53
2023-10-27T08:23:27.201Z,13.63
2023-10-27T08:25:54.998Z,13.40
2023-10-27T08:28:22.759Z,13.67
2023-10-27T08:30:50.558Z,13.46
2023-10-27T08:33:18.370Z,13.57
2023-10-27T08:35:47.501Z,13.70
2023-10-27T08:38:15.210Z,13.88
2023-10-27T08:40:44.013Z,14.00
2023-10-27T08:43:13.114Z,14.26
2023-10-27T08:45:43.042Z,14.65
2023-10-27T08:48:13.831Z,15.15
2023-10-27T08:50:42.104Z,16.20
2023-10-27T08:53:12.991Z,16.91
2023-10-27T08:55:41.108Z,16.01
2023-10-27T08:58:08.886Z,15.40
2023-10-27T09:00:36.891Z,15.64
2023-10-27T09:03:17.111Z,14.89
2023-10-27T09:05:45.408Z,14.98
2023-10-27T09:08:14.442Z,14.90
2023-10-27T09:10:42.198Z,14.94
2023-10-27T09:13:11.321Z,14.46
2023-10-27T09:15:42.068Z,14.99
2023-10-27T09:18:09.969Z,14.61
2023-10-27T09:20:48.052Z,14.61
2023-10-27T09:23:20.532Z,14.65
2023-10-27T09:25:48.777Z,14.34
2023-10-27T09:28:28.154Z,14.44
2023-10-27T09:30:58.292Z,14.70
2023-10-27T09:33:26.117Z,14.33
2023-10-27T09:35:55.323Z,14.80
2023-10-27T09:38:24.399Z,14.57
2023-10-27T09:40:52.165Z,14.55
2023-10-27T09:43:21.612Z,14.57
2023-10-27T09:45:53.015Z,14.65
2023-10-27T09:48:24.504Z,14.71
2023-10-27T09:51:00.612Z,14.73
2023-10-27T09:53:30.385Z,15.03
2023-10-27T09:55:59.884Z,15.26
2023-10-27T09:58:30.943Z,15.45
2023-10-27T10:01:00.009Z,15.78
2023-10-27T10:03:28.173Z,15.88
2023-10-27T10:06:10.786Z,16.36
2023-10-27T10:08:41.130Z,16.79
2023-10-27T10:11:13.638Z,16.87
2023-10-27T10:13:41.465Z,17.39
2023-10-27T10:16:10.910Z,17.37
2023-10-27T10:18:54.462Z,16.48
2023-10-27T10:21:33.561Z,15.43
2023-10-27T10:24:11.676Z,16.09
2023-10-27T10:27:03.687Z,16.37
2023-10-27T10:29:34.396Z,16.79
2023-10-27T10:32:35.043Z,16.73
2023-10-27T10:35:25.446Z,18.45
2023-10-27T10:37:54.093Z,18.79
2023-10-27T10:40:25.771Z,18.26
2023-10-27T10:43:21.802Z,18.92
2023-10-27T10:45:52.117Z,18.60
2023-10-27T10:48:20.252Z,19.62
2023-10-27T10:50:49.253Z,19.95
2023-10-27T10:53:18.851Z,20.04
2023-10-27T10:55:49.345Z,18.94
2023-10-27T10:58:23.890Z,17.81
2023-10-27T11:00:52.762Z,17.57
2023-10-27T11:03:23.316Z,17.44
2023-10-27T11:05:51.938Z,17.06
2023-10-27T11:08:25.426Z,15.74
2023-10-27T11:11:02.296Z,14.99
2023-10-27T11:13:31.753Z,15.04
2023-10-27T11:16:02.217Z,15.31
2023-10-27T11:18:31.039Z,14.94
2023-10-27T11:20:58.757Z,15.08
2023-10-27T11:23:27.621Z,15.22
2023-10-27T11:26:04.590Z,15.51
2023-10-27T11:28:40.530Z,16.29
2023-10-27T11:31:10.393Z,16.94
2023-10-27T11:34:05.079Z,16.80
2023-10-27T11:36:34.798Z,16.02
2023-10-27T11:39:16.322Z,15.91
2023-10-27T11:41:49.351Z,15.34
2023-10-27T11:44:17.555Z,15.65
2023-10-27T11:46:47.315Z,15.64
2023-10-27T11:49:15.557Z,15.59
2023-10-27T11:51:43.373Z,15.46
2023-10-27T11:54:11.120Z,15.37
2023-10-27T11:56:38.828Z,15.65
2023-10-27T11:59:08.152Z,15.51
2023-10-27T12:01:36.992Z,15.65
2023-10-27T12:04:05.957Z,15.66
2023-10-27T12:06:33.735Z,15.34
2023-10-27T12:09:03.502Z,15.40
2023-10-27T12:11:31.574Z,15.43
2023-10-27T12:13:59.286Z,15.40
2023-10-27T12:16:31.414Z,15.77
2023-10-27T12:18:59.168Z,15.72
2023-10-27T12:21:28.238Z,15.59
2023-10-27T12:23:57.886Z,15.36
2023-10-27T12:26:29.193Z,15.41
2023-10-27T12:28:56.896Z,15.43
2023-10-27T12:31:24.696Z,15.84
2023-10-27T12:33:53.786Z,17.37
2023-10-27T12:36:21.554Z,17.76
2023-10-27T12:38:49.256Z,16.90
2023-10-27T12:41:19.406Z,16.45
2023-10-27T12:43:49.600Z,16.14
2023-10-27T12:46:17.348Z,17.15
2023-10-27T12:48:45.630Z,16.89
2023-10-27T12:51:14.702Z,17.83
2023-10-27T12:53:42.909Z,18.13
2023-10-27T12:56:10.638Z,18.15
2023-10-27T12:58:38.445Z,18.57
2023-10-27T13:01:06.301Z,18.67
2023-10-27T13:03:35.103Z,18.78
2023-10-27T13:06:03.458Z,18.02
2023-10-27T13:08:32.880Z,17.18
2023-10-27T13:11:02.779Z,16.71
2023-10-27T13:13:30.825Z,17.02
2023-10-27T13:15:58.576Z,16.89
2023-10-27T13:18:26.909Z,16.53
2023-10-27T13:20:54.732Z,16.59
2023-10-27T13:23:22.436Z,16.87
2023-10-27T13:26:01.521Z,16.41
2023-10-27T13:28:29.262Z,16.86
2023-10-27T13:30:57.059Z,17.31
2023-10-27T13:33:25.823Z,18.34
2023-10-27T13:36:01.189Z,18.85
2023-10-27T13:38:28.900Z,18.39
2023-10-27T13:40:57.925Z,18.22
2023-10-27T13:43:25.680Z,18.32
2023-10-27T13:45:58.616Z,17.44
2023-10-27T13:48:26.731Z,17.44
2023-10-27T13:50:54.480Z,16.84
2023-10-27T13:53:22.487Z,17.04
2023-10-27T13:55:50.420Z,17.49
2023-10-27T13:58:19.872Z,18.20
2023-10-27T14:00:47.611Z,18.54
2023-10-27T14:03:15.518Z,17.71
2023-10-27T14:05:43.442Z,17.37
2023-10-27T14:08:11.342Z,17.91
2023-10-27T14:10:39.099Z,18.80
2023-10-27T14:13:07.017Z,18.73
2023-10-27T14:15:36.081Z,19.40
2023-10-27T14:18:04.119Z,18.90
2023-10-27T14:20:32.087Z,18.23
2023-10-27T14:22:59.848Z,18.36
2023-10-27T14:25:27.626Z,18.41
2023-10-27T14:27:55.380Z,17.84
2023-10-27T14:30:23.510Z,17.26
2023-10-27T14:32:52.635Z,17.04
2023-10-27T14:35:20.975Z,16.84
2023-10-27T14:37:53.221Z,16.73
2023-10-27T14:40:21.145Z,16.55
2023-10-27T14:42:49.123Z,16.25
2023-10-27T14:45:17.954Z,16.40
2023-10-27T14:47:45.844Z,16.19
2023-10-27T14:50:14.996Z,16.26
2023-10-27T14:52:42.838Z,16.39
2023-10-27T14:55:14.214Z,16.42
2023-10-27T14:57:42.669Z,16.47
2023-10-27T15:00:11.670Z,16.40
2023-10-27T15:02:39.895Z,16.43
2023-10-27T15:05:08.507Z,16.37
2023-10-27T15:07:38.270Z,16.50
2023-10-27T15:10:07.403Z,16.38
2023-10-27T15:12:38.215Z,16.14
2023-10-27T15:15:09.324Z,16.05
2023-10-27T15:17:38.445Z,15.83
2023-10-27T15:20:07.532Z,15.83
2023-10-27T15:22:36.645Z,15.88
2023-10-27T15:25:05.372Z,15.85
2023-10-27T15:27:35.675Z,15.81
2023-10-27T15:30:04.363Z,15.81
2023-10-27T15:32:32.304Z,15.81
2023-10-27T15:35:00.383Z,15.88
2023-10-27T15:37:28.517Z,16.07
2023-10-27T15:39:58.107Z,15.79
2023-10-27T15:42:26.124Z,15.86
2023-10-27T15:44:53.899Z,15.77
2023-10-27T15:47:21.690Z,15.76
2023-10-27T15:49:49.473Z,15.77
2023-10-27T15:52:17.219Z,15.78
2023-10-27T15:54:44.983Z,15.91
2023-10-27T15:57:14.169Z,15.97
2023-10-27T15:59:42.164Z,16.07
2023-10-27T16:02:10.382Z,16.02
2023-10-27T16:04:38.180Z,16.08
2023-10-27T16:07:05.983Z,16.04
2023-10-27T16:12:05.746Z,16.04
2023-10-27T16:14:35.094Z,16.15
2023-10-27T16:17:05.319Z,16.11
2023-10-27T16:19:33.291Z,16.04
2023-10-27T16:22:03.214Z,15.93
2023-10-27T16:24:30.994Z,15.77
2023-10-27T16:27:01.115Z,15.74
2023-10-27T16:29:28.832Z,15.64
2023-10-27T16:31:57.906Z,15.61
2023-10-27T16:34:27.007Z,15.66
2023-10-27T16:36:56.071Z,15.54
2023-10-27T16:39:23.797Z,15.59
2023-10-27T16:41:51.866Z,15.82
2023-10-27T16:44:19.847Z,15.79
2023-10-27T16:46:47.602Z,15.99
2023-10-27T16:49:19.035Z,16.04
2023-10-27T16:51:47.137Z,15.98
2023-10-27T16:54:14.958Z,15.92
2023-10-27T16:56:42.661Z,15.97
2023-10-27T16:59:10.424Z,15.89
2023-10-27T17:01:38.155Z,15.75
2023-10-27T17:04:05.965Z,15.63
2023-10-27T17:06:35.078Z,15.63
2023-10-27T17:09:02.976Z,15.74
2023-10-27T17:11:31.950Z,15.81
2023-10-27T17:14:04.029Z,15.85
2023-10-27T17:16:31.980Z,15.70
2023-10-27T17:18:59.766Z,15.77
2023-10-27T17:21:27.481Z,15.84
2023-10-27T17:23:56.549Z,16.03
2023-10-27T17:26:24.470Z,15.64
2023-10-27T17:28:53.549Z,16.05
2023-10-27T17:31:21.271Z,16.14
2023-10-27T17:33:52.094Z,16.09
2023-10-27T17:36:20.142Z,16.01
2023-10-27T17:38:47.869Z,15.88
2023-10-27T17:41:17.275Z,15.83
2023-10-27T17:43:45.210Z,15.59
2023-10-27T17:46:13.091Z,15.19
2023-10-27T17:48:42.600Z,14.88
2023-10-27T17:51:10.491Z,14.48
2023-10-27T17:53:39.007Z,14.30
2023-10-27T17:56:10.330Z,13.90
2023-10-27T17:58:39.718Z,13.91
2023-10-27T18:01:09.244Z,13.60
2023-10-27T18:03:38.020Z,13.33
2023-10-27T18:06:06.522Z,13.37
2023-10-27T18:08:34.379Z,13.33
2023-10-27T18:11:02.156Z,13.37
2023-10-27T18:13:29.896Z,13.26
2023-10-27T18:16:01.220Z,13.23
2023-10-27T18:18:29.166Z,13.29
2023-10-27T18:20:59.277Z,13.27
2023-10-27T18:23:27.010Z,13.38
2023-10-27T18:25:54.781Z,13.33
2023-10-27T18:28:22.643Z,13.43
2023-10-27T18:30:53.056Z,13.20
2023-10-27T18:33:22.168Z,13.12
2023-10-27T18:35:51.343Z,13.20
2023-10-27T18:38:19.291Z,13.15
2023-10-27T18:40:48.078Z,13.23
2023-10-27T18:43:15.825Z,13.29
2023-10-27T18:45:43.539Z,13.14
2023-10-27T18:48:13.804Z,12.81
2023-10-27T18:50:52.393Z,12.89
2023-10-27T18:53:20.094Z,12.85
2023-10-27T18:55:48.021Z,12.81
2023-10-27T18:58:15.745Z,12.71
2023-10-27T19:00:43.484Z,12.64
2023-10-27T19:03:11.327Z,12.76
2023-10-27T19:05:39.171Z,12.63
2023-10-27T19:08:08.394Z,12.73
2023-10-27T19:10:36.137Z,12.55
2023-10-27T19:13:05.463Z,12.39
2023-10-27T19:15:33.298Z,12.06
2023-10-27T19:18:01.260Z,11.69
2023-10-27T19:20:29.314Z,11.35
2023-10-27T19:22:57.115Z,11.26
2023-10-27T19:25:26.516Z,11.10
2023-10-27T19:27:54.190Z,11.09
2023-10-27T19:30:21.909Z,11.23
2023-10-27T19:32:49.677Z,11.20
2023-10-27T19:35:17.542Z,11.46
2023-10-27T19:37:45.440Z,11.73
2023-10-27T19:40:13.435Z,11.96
2023-10-27T19:42:42.596Z,12.07
2023-10-27T19:45:10.625Z,12.22
2023-10-27T19:47:39.791Z,12.42
2023-10-27T19:50:08.415Z,12.40
2023-10-27T19:52:36.169Z,12.52
2023-10-27T19:55:04.663Z,12.55
2023-10-27T19:57:32.364Z,12.66
2023-10-27T20:00:01.493Z,12.64
2023-10-27T20:02:29.219Z,12.78
2023-10-27T20:04:57.036Z,12.75
2023-10-27T20:07:24.795Z,12.70
2023-10-27T20:09:52.507Z,12.63
2023-10-27T20:12:20.239Z,12.78
2023-10-27T20:14:47.973Z,12.65
2023-10-27T20:17:17.393Z,12.42
2023-10-27T20:19:45.417Z,12.26
2023-10-27T20:22:13.565Z,11.96
2023-10-27T20:24:41.221Z,11.54
2023-10-27T20:27:09.746Z,11.59
2023-10-27T20:29:37.505Z,11.91
2023-10-27T20:32:05.782Z,12.18
2023-10-27T20:34:34.901Z,12.38
2023-10-27T20:37:03.926Z,12.56
2023-10-27T20:39:31.690Z,12.74
2023-10-27T20:41:59.355Z,12.73
2023-10-27T20:44:27.039Z,12.89
2023-10-27T20:46:54.863Z,12.95
2023-10-27T20:49:22.859Z,13.04
2023-10-27T20:51:53.318Z,13.12
2023-10-27T20:54:21.198Z,12.76
2023-10-27T20:56:49.228Z,12.72
2023-10-27T20:59:19.277Z,12.92
2023-10-27T21:01:47.018Z,12.75
2023-10-27T21:04:15.018Z,12.92
2023-10-27T21:06:42.684Z,13.12
2023-10-27T21:09:11.705Z,13.08
2023-10-27T21:11:39.460Z,13.03
2023-10-27T21:14:07.600Z,13.12
2023-10-27T21:16:35.571Z,13.10
2023-10-27T21:19:03.385Z,13.18
2023-10-27T21:21:31.103Z,13.28
2023-10-27T21:23:58.908Z,13.43
2023-10-27T21:26:28.264Z,13.15
2023-10-27T21:28:56.016Z,13.18
2023-10-27T21:31:23.873Z,13.31
2023-10-27T21:33:51.589Z,13.28
2023-10-27T21:36:19.336Z,13.37
2023-10-27T21:38:47.248Z,13.29
2023-10-27T21:41:17.393Z,13.36
2023-10-27T21:43:46.517Z,13.44
2023-10-27T21:46:14.531Z,13.37
2023-10-27T21:48:42.284Z,13.35
2023-10-27T21:51:10.027Z,13.35
2023-10-27T21:53:37.738Z,13.32
2023-10-27T21:56:06.318Z,13.33
2023-10-27T21:58:34.476Z,13.47
2023-10-27T22:01:04.230Z,13.47
2023-10-27T22:03:32.527Z,13.40
2023-10-27T22:06:00.294Z,13.43
2023-10-27T22:08:28.024Z,13.44
2023-10-27T22:10:55.941Z,13.49
2023-10-27T22:13:24.148Z,13.63
2023-10-27T22:15:51.845Z,13.68
2023-10-27T22:18:21.417Z,13.71
2023-10-27T22:20:51.518Z,13.77
2023-10-27T22:23:19.228Z,13.94
2023-10-27T22:25:47.297Z,14.01
2023-10-27T22:28:16.982Z,13.99
2023-10-27T22:30:48.883Z,14.02
2023-10-27T22:33:17.689Z,14.10
2023-10-27T22:35:47.127Z,14.09
2023-10-27T22:38:14.900Z,14.10
2023-10-27T22:40:42.613Z,14.03
2023-10-27T22:43:10.516Z,13.94
2023-10-27T22:45:38.265Z,13.93
2023-10-27T22:48:06.601Z,13.80
2023-10-27T22:50:35.542Z,13.50
2023-10-27T22:53:04.772Z,13.26
2023-10-27T22:55:32.683Z,12.86
2023-10-27T22:58:00.454Z,12.72
2023-10-27T23:00:28.317Z,12.35
2023-10-27T23:02:56.103Z,12.39
2023-10-27T23:05:23.872Z,12.26
2023-10-27T23:07:51.633Z,12.42
2023-10-27T23:10:20.956Z,12.46
2023-10-27T23:12:48.644Z,12.43
2023-10-27T23:15:16.527Z,12.71
2023-10-27T23:17:44.363Z,12.84
2023-10-27T23:20:12.522Z,12.90
2023-10-27T23:22:40.273Z,12.98
2023-10-27T23:25:08.473Z,13.09
2023-10-27T23:27:37.828Z,13.16
2023-10-27T23:30:06.935Z,13.25
2023-10-27T23:32:34.749Z,12.81
2023-10-27T23:35:02.499Z,12.85
2023-10-27T23:37:30.207Z,12.74
2023-10-27T23:39:57.866Z,12.76
2023-10-27T23:42:25.521Z,12.21
2023-10-27T23:44:54.544Z,12.47
2023-10-27T23:47:22.247Z,12.64
2023-10-27T23:49:49.942Z,12.78
2023-10-27T23:52:17.904Z,12.98
2023-10-27T23:54:45.632Z,13.32
2023-10-27T23:57:13.440Z,13.02
2023-10-27T23:59:41.326Z,13.23
